createdAt,value
2019-02-18T00:00:43.480Z,144.37
2019-02-18T00:03:15.281Z,147.20
2019-02-18T00:05:46.951Z,162.23
2019-02-18T00:08:18.748Z,169.97
2019-02-18T00:10:50.668Z,149.90
2019-02-18T00:13:22.266Z,133.47
2019-02-18T00:15:55.408Z,154.37
2019-02-18T00:18:27.123Z,145.23
2019-02-18T00:20:58.829Z,150.17
2019-02-18T00:23:30.479Z,152.70
2019-02-18T00:26:02.213Z,151.87
2019-02-18T00:28:34.049Z,147.57
2019-02-18T00:31:05.668Z,147.70
2019-02-18T00:33:37.295Z,139.27
2019-02-18T00:36:09.051Z,129.87
2019-02-18T00:38:40.976Z,132.13
2019-02-18T00:41:12.608Z,134.37
2019-02-18T00:43:44.252Z,108.07
2019-02-18T00:46:15.865Z,118.97
2019-02-18T00:48:47.560Z,123.33
2019-02-18T00:51:20.488Z,128.00
2019-02-18T00:53:52.087Z,119.73
2019-02-18T00:56:23.697Z,117.37
2019-02-18T00:58:55.330Z,119.20
2019-02-18T01:01:26.956Z,116.47
2019-02-18T01:03:58.583Z,116.37
2019-02-18T01:06:30.268Z,134.10
2019-02-18T01:09:01.884Z,118.10
2019-02-18T01:11:35.155Z,114.70
2019-02-18T01:14:06.789Z,109.77
2019-02-18T01:16:38.468Z,112.50
2019-02-18T01:19:10.330Z,112.63
2019-02-18T01:21:43.455Z,111.03
2019-02-18T01:24:19.823Z,114.77
2019-02-18T01:26:52.871Z,108.47
2019-02-18T01:29:25.948Z,109.47
2019-02-18T01:31:59.983Z,108.20
2019-02-18T01:34:33.060Z,111.03
2019-02-18T01:37:06.133Z,109.50
2019-02-18T01:39:37.864Z,110.90
2019-02-18T01:42:09.584Z,109.40
2019-02-18T01:44:41.395Z,109.80
2019-02-18T01:47:13.073Z,111.07
2019-02-18T01:49:44.765Z,110.50
2019-02-18T01:52:16.475Z,108.53
2019-02-18T01:54:48.166Z,105.20
2019-02-18T01:57:19.774Z,102.47
2019-02-18T01:59:51.378Z,102.93
2019-02-18T02:02:22.996Z,98.00
2019-02-18T02:04:54.605Z,96.40
2019-02-18T02:07:26.208Z,104.40
2019-02-18T02:09:57.898Z,102.50
2019-02-18T02:12:29.570Z,98.57
2019-02-18T02:15:01.178Z,97.23
2019-02-18T02:17:33.841Z,96.67
2019-02-18T02:20:05.793Z,96.90
2019-02-18T02:22:37.475Z,92.03
2019-02-18T02:25:09.095Z,96.43
2019-02-18T02:27:41.011Z,92.13
2019-02-18T02:30:12.817Z,92.80
2019-02-18T02:32:44.484Z,90.57
2019-02-18T02:35:16.112Z,92.33
2019-02-18T02:37:47.717Z,88.80
2019-02-18T02:40:19.331Z,92.60
2019-02-18T02:42:50.990Z,92.07
2019-02-18T02:45:22.652Z,91.57
2019-02-18T02:47:54.260Z,90.30
2019-02-18T02:50:25.891Z,91.17
2019-02-18T02:52:57.537Z,128.77
2019-02-18T02:55:29.116Z,168.73
2019-02-18T02:58:00.713Z,129.33
2019-02-18T03:00:32.331Z,118.73
2019-02-18T03:03:03.946Z,102.13
2019-02-18T03:05:35.670Z,102.87
2019-02-18T03:08:19.343Z,98.67
2019-02-18T03:10:40.591Z,97.67
2019-02-18T03:13:12.176Z,104.20
2019-02-18T03:15:44.189Z,106.37
2019-02-18T03:18:15.858Z,119.87
2019-02-18T03:20:48.441Z,108.67
2019-02-18T03:23:20.117Z,107.87
2019-02-18T03:25:53.315Z,99.73
2019-02-18T03:29:23.788Z,96.80
2019-02-18T03:31:55.419Z,79.90
2019-02-18T03:34:53.641Z,113.77
2019-02-18T03:37:25.258Z,107.87
2019-02-18T03:39:56.865Z,109.80
2019-02-18T03:42:28.461Z,105.50
2019-02-18T03:45:00.098Z,101.33
2019-02-18T03:47:31.918Z,96.37
2019-02-18T03:50:03.511Z,106.07
2019-02-18T03:52:35.196Z,100.83
2019-02-18T03:55:07.328Z,88.33
2019-02-18T03:57:39.091Z,84.67
2019-02-18T04:00:11.028Z,98.30
2019-02-18T04:02:42.683Z,95.07
2019-02-18T04:05:14.282Z,100.03
2019-02-18T04:07:45.890Z,105.40
2019-02-18T04:10:17.494Z,96.00
2019-02-18T04:12:49.153Z,99.27
2019-02-18T04:15:21.727Z,94.83
2019-02-18T04:17:53.429Z,96.00
2019-02-18T04:20:25.052Z,84.13
2019-02-18T04:22:56.658Z,98.17
2019-02-18T04:25:28.271Z,90.03
2019-02-18T04:27:59.896Z,84.50
2019-02-18T04:30:31.489Z,83.43
2019-02-18T04:33:03.177Z,77.30
2019-02-18T04:35:34.794Z,74.77
2019-02-18T04:38:06.401Z,78.43
2019-02-18T04:40:38.234Z,72.97
2019-02-18T04:43:09.898Z,69.93
2019-02-18T04:45:41.509Z,74.33
2019-02-18T04:48:13.125Z,71.57
2019-02-18T04:50:44.726Z,69.90
2019-02-18T04:53:16.407Z,72.73
2019-02-18T04:55:48.014Z,68.77
2019-02-18T04:58:19.638Z,67.43
2019-02-18T05:00:51.253Z,67.77
2019-02-18T05:03:22.844Z,68.90
2019-02-18T05:05:54.437Z,69.00
2019-02-18T05:08:26.059Z,68.13
2019-02-18T05:10:57.665Z,70.73
2019-02-18T05:13:29.359Z,71.47
2019-02-18T05:16:01.007Z,69.30
2019-02-18T05:18:32.686Z,76.43
2019-02-18T05:21:04.289Z,81.50
2019-02-18T05:23:35.993Z,81.07
2019-02-18T05:26:07.586Z,99.43
2019-02-18T05:28:39.231Z,115.30
2019-02-18T05:31:11.042Z,101.43
2019-02-18T05:33:42.668Z,101.50
2019-02-18T05:36:14.273Z,93.67
2019-02-18T05:38:45.872Z,90.63
2019-02-18T05:41:17.472Z,93.23
2019-02-18T05:43:49.081Z,95.83
2019-02-18T05:46:20.687Z,95.70
2019-02-18T05:48:52.320Z,86.87
2019-02-18T05:51:23.935Z,91.27
2019-02-18T05:53:55.618Z,86.00
2019-02-18T05:56:27.220Z,83.23
2019-02-18T05:58:58.858Z,81.53
2019-02-18T06:01:31.749Z,87.73
2019-02-18T06:04:03.418Z,89.37
2019-02-18T06:06:35.040Z,90.30
2019-02-18T06:09:07.105Z,90.93
2019-02-18T06:11:38.766Z,90.70
2019-02-18T06:14:10.416Z,92.90
2019-02-18T06:16:42.198Z,93.17
2019-02-18T06:19:14.082Z,100.10
2019-02-18T06:21:45.692Z,105.77
2019-02-18T06:24:17.300Z,112.93
2019-02-18T06:26:48.925Z,102.63
2019-02-18T06:29:20.533Z,103.03
2019-02-18T06:31:52.145Z,100.73
2019-02-18T06:34:23.791Z,102.70
2019-02-18T06:36:55.549Z,100.00
2019-02-18T06:39:27.172Z,101.20
2019-02-18T06:41:58.828Z,103.50
2019-02-18T06:44:42.084Z,101.50
2019-02-18T06:47:19.424Z,106.43
2019-02-18T06:49:51.197Z,105.50
2019-02-18T06:52:22.935Z,103.10
2019-02-18T06:54:54.632Z,101.80
2019-02-18T06:57:37.482Z,103.60
2019-02-18T07:00:22.331Z,105.90
2019-02-18T07:03:11.336Z,104.00
2019-02-18T07:06:01.940Z,107.67
2019-02-18T07:08:52.520Z,107.20
2019-02-18T07:11:31.356Z,107.60
2019-02-18T07:14:02.951Z,109.20
2019-02-18T07:16:34.562Z,105.57
2019-02-18T07:19:06.205Z,112.93
2019-02-18T07:21:38.125Z,112.90
2019-02-18T07:24:09.844Z,113.57
2019-02-18T07:26:43.117Z,108.43
2019-02-18T07:29:14.813Z,102.90
2019-02-18T07:31:46.505Z,100.53
2019-02-18T07:34:18.110Z,96.73
2019-02-18T07:36:52.069Z,96.77
2019-02-18T07:39:30.125Z,95.37
2019-02-18T07:42:02.363Z,95.20
2019-02-18T07:44:34.241Z,92.23
2019-02-18T07:47:11.059Z,94.97
2019-02-18T07:49:44.513Z,90.43
2019-02-18T07:52:16.758Z,90.90
2019-02-18T07:54:49.217Z,95.67
2019-02-18T07:57:21.189Z,97.33
2019-02-18T07:59:53.425Z,97.70
2019-02-18T08:02:25.616Z,99.33
2019-02-18T08:04:57.296Z,98.57
2019-02-18T08:07:30.608Z,101.17
2019-02-18T08:10:11.682Z,103.80
2019-02-18T08:12:37.681Z,104.20
2019-02-18T08:15:10.289Z,91.97
2019-02-18T08:17:42.272Z,99.10
2019-02-18T08:20:15.236Z,101.30
2019-02-18T08:22:47.292Z,103.20
2019-02-18T08:25:19.262Z,98.87
2019-02-18T08:27:51.138Z,104.80
2019-02-18T08:30:23.390Z,106.53
2019-02-18T08:32:55.224Z,107.10
2019-02-18T08:35:27.230Z,106.10
2019-02-18T08:37:59.599Z,111.47
2019-02-18T08:40:31.478Z,113.40
2019-02-18T08:43:03.235Z,117.23
2019-02-18T08:45:35.930Z,113.47
2019-02-18T08:48:09.828Z,108.33
2019-02-18T08:50:43.980Z,109.57
2019-02-18T08:53:16.352Z,119.10
2019-02-18T08:55:49.805Z,124.33
2019-02-18T08:58:22.733Z,133.37
2019-02-18T09:01:02.290Z,131.07
2019-02-18T09:03:28.091Z,115.13
2019-02-18T09:05:59.770Z,118.37
2019-02-18T09:08:31.463Z,93.50
2019-02-18T09:11:03.087Z,91.53
2019-02-18T09:13:34.701Z,91.20
2019-02-18T09:16:06.718Z,95.00
2019-02-18T09:18:38.543Z,94.10
2019-02-18T09:21:10.164Z,89.73
2019-02-18T09:23:55.949Z,87.83
2019-02-18T09:26:27.616Z,64.17
2019-02-18T09:28:59.617Z,69.50
2019-02-18T09:31:33.836Z,53.73
2019-02-18T09:34:07.077Z,52.00
2019-02-18T09:36:39.901Z,55.50
2019-02-18T09:39:17.854Z,60.83
2019-02-18T09:41:51.245Z,60.23
2019-02-18T09:44:24.716Z,64.73
2019-02-18T09:46:56.913Z,52.43
2019-02-18T09:49:29.892Z,54.97
2019-02-18T09:52:01.909Z,55.60
2019-02-18T09:54:33.973Z,53.53
2019-02-18T09:57:05.661Z,51.83
2019-02-18T09:59:38.023Z,60.50
2019-02-18T10:02:11.102Z,54.90
2019-02-18T10:04:42.781Z,63.13
2019-02-18T10:07:15.961Z,57.77
2019-02-18T10:09:49.605Z,52.10
2019-02-18T10:12:22.369Z,54.00
2019-02-18T10:14:54.768Z,52.77
2019-02-18T10:17:27.300Z,50.40
2019-02-18T10:19:59.505Z,49.17
2019-02-18T10:22:31.981Z,48.50
2019-02-18T10:25:03.808Z,50.63
2019-02-18T10:27:35.492Z,47.23
2019-02-18T10:30:09.004Z,45.20
2019-02-18T10:32:43.991Z,45.20
2019-02-18T10:35:16.121Z,104.10
2019-02-18T10:37:55.092Z,65.20
2019-02-18T10:40:36.623Z,51.47
2019-02-18T10:43:09.335Z,50.20
2019-02-18T10:45:42.456Z,48.60
2019-02-18T10:48:15.000Z,45.40
2019-02-18T10:50:47.994Z,45.13
2019-02-18T10:53:19.658Z,45.67
2019-02-18T10:55:51.365Z,44.40
2019-02-18T10:58:23.052Z,45.37
2019-02-18T11:00:54.803Z,51.80
2019-02-18T11:03:26.839Z,46.53
2019-02-18T11:05:58.652Z,45.93
2019-02-18T11:08:30.381Z,42.10
2019-02-18T11:11:04.235Z,42.13
2019-02-18T11:13:36.062Z,43.27
2019-02-18T11:16:08.548Z,52.57
2019-02-18T11:18:40.454Z,44.93
2019-02-18T11:21:12.730Z,48.03
2019-02-18T11:23:44.687Z,42.90
2019-02-18T11:26:17.542Z,40.27
2019-02-18T11:28:49.280Z,34.67
2019-02-18T11:31:21.412Z,40.00
2019-02-18T11:33:53.300Z,38.80
2019-02-18T11:36:26.410Z,41.80
2019-02-18T11:38:58.564Z,40.20
2019-02-18T11:41:30.313Z,39.63
2019-02-18T11:44:02.606Z,39.97
2019-02-18T11:46:34.608Z,37.37
2019-02-18T11:49:06.808Z,36.50
2019-02-18T11:51:39.378Z,34.20
2019-02-18T11:54:11.162Z,34.43
2019-02-18T11:56:43.047Z,39.03
2019-02-18T11:59:23.916Z,35.43
2019-02-18T12:01:50.411Z,32.87
2019-02-18T12:04:23.935Z,31.87
2019-02-18T12:06:56.672Z,34.73
2019-02-18T12:09:28.892Z,30.00
2019-02-18T12:12:00.890Z,30.80
2019-02-18T12:14:32.917Z,33.33
2019-02-18T12:17:05.896Z,31.77
2019-02-18T12:19:39.478Z,32.93
2019-02-18T12:22:12.181Z,30.90
2019-02-18T12:24:44.140Z,28.67
2019-02-18T12:27:16.038Z,27.83
2019-02-18T12:29:47.874Z,26.53
2019-02-18T12:32:20.378Z,29.53
2019-02-18T12:34:52.221Z,29.50
2019-02-18T12:37:23.975Z,30.57
2019-02-18T12:39:55.600Z,28.83
2019-02-18T12:42:28.785Z,29.07
2019-02-18T12:45:02.236Z,29.67
2019-02-18T12:47:35.846Z,30.57
2019-02-18T12:50:09.364Z,29.13
2019-02-18T12:52:42.088Z,32.00
2019-02-18T12:55:15.377Z,34.63
2019-02-18T12:57:47.887Z,31.60
2019-02-18T13:00:19.777Z,31.90
2019-02-18T13:02:53.499Z,32.97
2019-02-18T13:05:26.812Z,30.53
2019-02-18T13:07:58.925Z,29.40
2019-02-18T13:10:34.774Z,27.97
2019-02-18T13:13:04.279Z,29.13
2019-02-18T13:15:36.082Z,28.67
2019-02-18T13:18:09.267Z,29.00
2019-02-18T13:20:41.765Z,32.90
2019-02-18T13:23:13.855Z,32.27
2019-02-18T13:25:47.593Z,32.87
2019-02-18T13:28:19.374Z,31.53
2019-02-18T13:30:51.107Z,33.60
2019-02-18T13:33:22.856Z,54.43
2019-02-18T13:35:55.555Z,37.57
2019-02-18T13:38:28.981Z,33.03
2019-02-18T13:41:02.750Z,38.40
2019-02-18T13:43:34.749Z,39.47
2019-02-18T13:46:06.749Z,35.37
2019-02-18T13:48:38.918Z,30.53
2019-02-18T13:51:11.015Z,33.40
2019-02-18T13:53:42.860Z,30.83
2019-02-18T13:56:14.553Z,30.43
2019-02-18T13:58:47.850Z,32.50
2019-02-18T14:01:20.054Z,34.00
2019-02-18T14:03:52.086Z,80.07
2019-02-18T14:06:24.047Z,36.23
2019-02-18T14:08:56.171Z,35.93
2019-02-18T14:11:28.498Z,32.30
2019-02-18T14:14:02.639Z,31.27
2019-02-18T14:16:34.365Z,36.13
2019-02-18T14:19:06.077Z,36.10
2019-02-18T14:21:39.248Z,32.47
2019-02-18T14:24:14.849Z,31.87
2019-02-18T14:26:46.468Z,31.60
2019-02-18T14:29:18.139Z,31.63
2019-02-18T14:31:49.822Z,35.30
2019-02-18T14:34:22.105Z,37.83
2019-02-18T14:36:54.507Z,34.37
2019-02-18T14:39:27.140Z,35.87
2019-02-18T14:42:01.609Z,31.67
2019-02-18T14:44:35.141Z,35.87
2019-02-18T14:47:09.765Z,58.27
2019-02-18T14:49:44.837Z,71.53
2019-02-18T14:52:20.517Z,74.57
2019-02-18T14:54:54.129Z,67.83
2019-02-18T14:57:26.509Z,54.33
2019-02-18T15:00:00.300Z,62.30
2019-02-18T15:02:35.302Z,42.33
2019-02-18T15:05:09.333Z,38.67
2019-02-18T15:07:43.774Z,41.90
2019-02-18T15:10:17.583Z,40.93
2019-02-18T15:12:53.206Z,58.53
2019-02-18T15:15:25.470Z,55.47
2019-02-18T15:17:57.393Z,46.33
2019-02-18T15:20:29.569Z,47.33
2019-02-18T15:23:03.055Z,47.20
2019-02-18T15:25:36.463Z,51.93
2019-02-18T15:28:08.817Z,44.10
2019-02-18T15:30:41.596Z,72.00
2019-02-18T15:33:13.589Z,118.00
2019-02-18T15:35:45.340Z,73.33
2019-02-18T15:38:17.512Z,68.60
2019-02-18T15:40:49.290Z,70.20
2019-02-18T15:43:21.594Z,65.73
2019-02-18T15:45:53.427Z,69.03
2019-02-18T15:48:26.213Z,73.80
2019-02-18T15:50:57.935Z,77.63
2019-02-18T15:53:30.679Z,80.63
2019-02-18T15:56:02.442Z,99.97
2019-02-18T15:58:35.772Z,104.27
2019-02-18T16:01:08.314Z,113.97
2019-02-18T16:03:40.057Z,112.13
2019-02-18T16:06:12.829Z,121.87
2019-02-18T16:08:45.987Z,122.93
2019-02-18T16:11:17.691Z,124.70
2019-02-18T16:13:49.385Z,126.03
2019-02-18T16:16:21.031Z,143.80
2019-02-18T16:18:52.928Z,127.63
2019-02-18T16:21:24.617Z,98.67
2019-02-18T16:23:56.311Z,98.73
2019-02-18T16:26:28.025Z,105.17
2019-02-18T16:28:59.638Z,87.87
2019-02-18T16:31:31.436Z,85.30
2019-02-18T16:34:03.416Z,80.07
2019-02-18T16:36:35.105Z,84.17
2019-02-18T16:39:07.233Z,85.60
2019-02-18T16:41:39.230Z,157.37
2019-02-18T16:44:11.068Z,131.40
2019-02-18T16:46:42.960Z,209.07
2019-02-18T16:49:14.869Z,186.90
2019-02-18T16:51:46.506Z,134.23
2019-02-18T16:54:18.136Z,128.93
2019-02-18T16:56:49.984Z,156.27
2019-02-18T16:59:21.688Z,115.97
2019-02-18T17:01:53.320Z,103.27
2019-02-18T17:04:27.305Z,100.60
2019-02-18T17:06:58.282Z,103.60
2019-02-18T17:09:29.894Z,104.67
2019-02-18T17:12:01.569Z,112.57
2019-02-18T17:14:33.467Z,112.20
2019-02-18T17:17:05.204Z,111.03
2019-02-18T17:19:36.816Z,120.90
2019-02-18T17:22:08.820Z,150.07
2019-02-18T17:24:40.577Z,138.63
2019-02-18T17:27:12.226Z,129.03
2019-02-18T17:29:43.920Z,129.13
2019-02-18T17:32:15.567Z,136.17
2019-02-18T17:34:47.240Z,129.07
2019-02-18T17:37:18.866Z,122.67
2019-02-18T17:39:50.597Z,137.60
2019-02-18T17:42:22.246Z,147.83
2019-02-18T17:44:53.955Z,158.50
2019-02-18T17:47:26.702Z,157.03
2019-02-18T17:49:58.956Z,170.30
2019-02-18T17:52:30.795Z,174.23
2019-02-18T17:55:03.491Z,199.67
2019-02-18T17:57:35.216Z,221.90
2019-02-18T18:00:08.269Z,203.33
2019-02-18T18:02:40.266Z,227.00
2019-02-18T18:05:12.234Z,247.67
2019-02-18T18:07:46.233Z,266.27
2019-02-18T18:10:19.356Z,276.77
2019-02-18T18:12:51.207Z,246.30
2019-02-18T18:15:23.038Z,326.20
2019-02-18T18:17:54.868Z,323.07
2019-02-18T18:20:26.794Z,294.70
2019-02-18T18:22:59.021Z,265.50
2019-02-18T18:25:30.824Z,243.53
2019-02-18T18:28:02.578Z,250.43
2019-02-18T18:30:34.382Z,269.90
2019-02-18T18:33:06.234Z,266.67
2019-02-18T18:35:42.880Z,248.33
2019-02-18T18:38:15.441Z,235.17
2019-02-18T18:40:47.140Z,228.90
2019-02-18T18:43:19.010Z,229.40
2019-02-18T18:45:51.787Z,214.17
2019-02-18T18:48:23.740Z,213.90
2019-02-18T18:50:55.486Z,221.33
2019-02-18T18:53:27.104Z,260.40
2019-02-18T18:55:58.749Z,249.87
2019-02-18T18:58:30.734Z,242.70
2019-02-18T19:01:02.492Z,234.90
2019-02-18T19:03:34.395Z,238.60
2019-02-18T19:06:06.018Z,230.93
2019-02-18T19:08:38.122Z,246.63
2019-02-18T19:11:10.548Z,252.03
2019-02-18T19:13:42.436Z,249.27
2019-02-18T19:16:14.233Z,257.00
2019-02-18T19:18:48.188Z,263.43
2019-02-18T19:21:19.798Z,316.30
2019-02-18T19:23:51.590Z,327.73
2019-02-18T19:26:23.258Z,292.03
2019-02-18T19:28:55.153Z,270.57
2019-02-18T19:31:26.768Z,273.50
2019-02-18T19:33:59.393Z,283.43
2019-02-18T19:36:32.245Z,272.00
2019-02-18T19:39:04.526Z,261.73
2019-02-18T19:41:37.625Z,281.30
2019-02-18T19:44:09.661Z,319.27
2019-02-18T19:46:41.636Z,343.83
2019-02-18T19:49:13.447Z,365.23
2019-02-18T19:51:45.562Z,376.63
2019-02-18T19:54:17.240Z,370.70
2019-02-18T19:56:48.852Z,403.37
2019-02-18T19:59:20.480Z,433.83
2019-02-18T20:01:52.284Z,433.00
2019-02-18T20:04:23.996Z,368.17
2019-02-18T20:06:55.610Z,370.77
2019-02-18T20:09:27.604Z,392.83
2019-02-18T20:11:59.273Z,387.77
2019-02-18T20:14:31.192Z,384.63
2019-02-18T20:17:02.849Z,381.23
2019-02-18T20:19:34.846Z,372.33
2019-02-18T20:22:06.850Z,357.27
2019-02-18T20:24:39.600Z,368.00
2019-02-18T20:27:11.285Z,371.77
2019-02-18T20:29:43.219Z,362.33
2019-02-18T20:32:15.018Z,356.47
2019-02-18T20:34:46.745Z,348.63
2019-02-18T20:37:18.562Z,360.20
2019-02-18T20:39:50.182Z,360.63
2019-02-18T20:42:21.952Z,353.97
2019-02-18T20:44:54.470Z,351.40
2019-02-18T20:47:26.297Z,355.23
2019-02-18T20:49:58.295Z,349.03
2019-02-18T20:52:30.222Z,337.30
2019-02-18T20:55:01.948Z,339.83
2019-02-18T20:57:33.616Z,322.93
2019-02-18T21:00:07.385Z,323.00
2019-02-18T21:02:39.492Z,322.87
2019-02-18T21:05:11.194Z,309.20
2019-02-18T21:07:43.031Z,302.53
2019-02-18T21:10:16.344Z,293.63
2019-02-18T21:12:48.111Z,304.30
2019-02-18T21:15:20.173Z,289.80
2019-02-18T21:17:51.924Z,294.30
2019-02-18T21:20:23.599Z,288.07
2019-02-18T21:22:55.295Z,252.77
2019-02-18T21:25:27.231Z,220.77
2019-02-18T21:27:59.135Z,211.87
2019-02-18T21:30:30.869Z,205.70
2019-02-18T21:33:02.492Z,202.80
2019-02-18T21:35:34.191Z,206.47
2019-02-18T21:38:06.379Z,196.10
2019-02-18T21:40:38.147Z,199.40
2019-02-18T21:43:10.572Z,197.20
2019-02-18T21:45:42.288Z,210.40
2019-02-18T21:48:15.464Z,231.40
2019-02-18T21:50:47.245Z,226.23
2019-02-18T21:53:19.644Z,269.43
2019-02-18T21:55:51.404Z,288.47
2019-02-18T21:58:23.389Z,301.27
2019-02-18T22:00:55.016Z,293.03
2019-02-18T22:03:26.651Z,280.83
2019-02-18T22:05:58.369Z,268.43
2019-02-18T22:08:30.012Z,263.40
2019-02-18T22:11:02.072Z,263.17
2019-02-18T22:13:33.673Z,272.60
2019-02-18T22:16:05.380Z,261.47
2019-02-18T22:18:37.050Z,255.67
2019-02-18T22:21:08.681Z,230.03
2019-02-18T22:23:40.306Z,214.47
2019-02-18T22:26:11.953Z,194.33
2019-02-18T22:28:43.764Z,146.37
2019-02-18T22:31:15.390Z,201.97
2019-02-18T22:33:47.075Z,187.77
2019-02-18T22:36:18.712Z,196.67
2019-02-18T22:38:50.310Z,188.50
2019-02-18T22:41:21.903Z,163.10
2019-02-18T22:43:53.522Z,173.13
2019-02-18T22:46:25.216Z,188.53
2019-02-18T22:48:56.892Z,204.73
2019-02-18T22:51:28.871Z,202.03
2019-02-18T22:54:00.478Z,167.03
2019-02-18T22:56:33.059Z,160.93
2019-02-18T22:59:04.657Z,142.70
2019-02-18T23:01:36.302Z,125.13
2019-02-18T23:04:08.235Z,114.90
2019-02-18T23:06:39.917Z,119.17
2019-02-18T23:09:12.766Z,132.83
2019-02-18T23:11:44.455Z,128.67
2019-02-18T23:14:16.135Z,150.10
2019-02-18T23:16:48.268Z,145.00
2019-02-18T23:19:19.908Z,137.70
2019-02-18T23:21:51.599Z,139.20
2019-02-18T23:24:23.316Z,135.70
2019-02-18T23:26:55.016Z,130.53
2019-02-18T23:29:26.952Z,134.57
2019-02-18T23:31:58.629Z,139.87
2019-02-18T23:34:30.288Z,137.77
2019-02-18T23:37:02.888Z,135.60
2019-02-18T23:39:34.548Z,126.73
2019-02-18T23:42:06.160Z,121.80
2019-02-18T23:44:37.818Z,120.67
2019-02-18T23:47:09.833Z,100.17
2019-02-18T23:49:41.451Z,106.43
2019-02-18T23:52:13.186Z,122.10
2019-02-18T23:54:44.805Z,113.50
2019-02-18T23:57:16.477Z,109.20
2019-02-18T23:59:48.157Z,118.83
